Time;durP1;ratioP1;P1;durP2;ratioP2;P2;SDS_P1;SDS_P2;PMS_P1;PMS_P2;Temp;Humidity;BMP_temperature;BMP_pressure;BME280_temperature;BME280_humidity;BME280_pressure;Samples;Min_cycle;Max_cycle;Signal;HPM_P1;HPM_P2
2022/07/25 00:01:59;;;;;;;10.63;5.37;;;;;;;25.36;44.17;99467.81;5076281;28;20044;-82
2022/07/25 00:04:24;;;;;;;9.70;5.27;;;;;;;25.28;43.44;99464.13;5076021;28;20260;-82
2022/07/25 00:06:49;;;;;;;9.00;5.55;;;;;;;25.24;43.29;99466.81;5076495;28;20458;-82
2022/07/25 00:09:15;;;;;;;9.83;5.80;;;;;;;25.25;43.14;99468.44;5076105;28;20067;-82
2022/07/25 00:11:40;;;;;;;8.57;5.57;;;;;;;25.26;43.38;99460.91;5076180;28;20270;-81
2022/07/25 00:14:06;;;;;;;11.15;6.05;;;;;;;25.25;43.36;99465.66;5075642;28;20783;-81
2022/07/25 00:16:31;;;;;;;11.43;6.10;;;;;;;25.19;43.25;99458.78;5096177;28;20040;-82
2022/07/25 00:18:57;;;;;;;9.32;5.05;;;;;;;25.11;43.60;99451.47;5096504;28;20352;-82
2022/07/25 00:21:22;;;;;;;9.67;5.63;;;;;;;25.02;43.56;99441.38;5094973;28;20452;-82
2022/07/25 00:23:47;;;;;;;7.17;5.20;;;;;;;25.03;43.62;99440.19;5094297;28;20240;-82
2022/07/25 00:26:13;;;;;;;8.32;5.63;;;;;;;25.06;43.65;99431.09;5096151;28;20355;-82
2022/07/25 00:28:39;;;;;;;8.75;5.68;;;;;;;25.09;43.27;99426.75;5095731;28;20024;-82
2022/07/25 00:31:04;;;;;;;11.00;6.55;;;;;;;25.07;43.63;99420.75;5096294;28;20028;-82
2022/07/25 00:33:29;;;;;;;10.05;6.38;;;;;;;25.06;43.51;99422.72;5095829;28;20024;-81
2022/07/25 00:35:55;;;;;;;8.40;5.30;;;;;;;25.11;43.65;99421.59;5095910;28;20035;-81
2022/07/25 00:38:20;;;;;;;9.50;4.95;;;;;;;25.03;43.46;99417.91;5090747;28;20598;-81
2022/07/25 00:40:45;;;;;;;11.93;5.32;;;;;;;25.01;43.29;99416.66;5086585;28;20474;-80
2022/07/25 00:43:11;;;;;;;8.67;6.00;;;;;;;25.07;43.50;99406.81;5090273;28;20138;-81
2022/07/25 00:45:36;;;;;;;10.43;6.50;;;;;;;25.05;43.08;99407.19;5086177;28;20075;-81
2022/07/25 00:48:01;;;;;;;8.47;5.53;;;;;;;24.98;43.23;99412.63;5079159;28;20016;-80
2022/07/25 00:50:27;;;;;;;7.97;4.72;;;;;;;24.96;43.26;99414.97;5082681;28;20288;-80
2022/07/25 00:52:52;;;;;;;11.27;6.25;;;;;;;24.88;43.34;99413.22;5077145;28;20029;-81
2022/07/25 00:55:18;;;;;;;10.65;5.95;;;;;;;24.92;43.61;99406.53;5079407;28;20028;-81
2022/07/25 00:57:43;;;;;;;8.32;5.38;;;;;;;24.94;43.20;99411.72;5080529;28;20025;-81
2022/07/25 01:00:12;;;;;;;11.48;6.05;;;;;;;24.96;43.45;99403.81;5082500;28;20365;-81
2022/07/25 01:02:38;;;;;;;8.77;5.97;;;;;;;24.99;43.06;99396.72;5075731;28;20024;-81
2022/07/25 01:05:04;;;;;;;12.88;6.40;;;;;;;24.99;43.34;99402.28;5080282;28;20125;-80
2022/07/25 01:07:30;;;;;;;9.52;4.88;;;;;;;24.95;43.40;99402.19;5083637;28;20027;-82
2022/07/25 01:09:56;;;;;;;10.02;6.47;;;;;;;24.91;43.66;99407.72;5078571;28;20028;-81
2022/07/25 01:12:22;;;;;;;9.02;6.10;;;;;;;24.82;43.31;99399.59;5077805;28;20043;-81
2022/07/25 01:14:47;;;;;;;8.48;5.75;;;;;;;24.80;43.47;99398.34;5082167;28;20020;-81
2022/07/25 01:17:13;;;;;;;8.38;5.70;;;;;;;24.87;43.88;99386.53;5079481;28;20047;-81
2022/07/25 01:19:39;;;;;;;6.80;4.57;;;;;;;24.88;43.75;99390.91;5075906;28;20029;-81
2022/07/25 01:22:05;;;;;;;12.13;6.40;;;;;;;24.78;43.67;99381.19;5078585;28;20024;-81
2022/07/25 01:24:32;;;;;;;13.13;5.75;;;;;;;24.82;43.73;99385.66;5079774;28;20085;-81
2022/07/25 01:26:58;;;;;;;17.77;6.03;;;;;;;24.74;44.05;99380.31;5078116;28;20464;-81
2022/07/25 01:29:23;;;;;;;9.40;5.63;;;;;;;24.72;43.67;99378.72;5078380;28;20024;-81
2022/07/25 01:31:48;;;;;;;9.27;6.23;;;;;;;24.68;43.82;99379.81;5081349;28;20353;-82
2022/07/25 01:34:14;;;;;;;8.50;5.97;;;;;;;24.74;43.78;99383.09;5077471;28;20249;-81
2022/07/25 01:36:39;;;;;;;8.67;5.00;;;;;;;24.78;43.73;99382.00;5078891;28;20380;-82
2022/07/25 01:39:04;;;;;;;10.30;6.87;;;;;;;24.72;43.80;99375.13;5079779;28;20256;-82
2022/07/25 01:41:29;;;;;;;9.87;5.77;;;;;;;24.73;43.77;99382.31;5080332;28;20072;-82
2022/07/25 01:43:55;;;;;;;9.43;5.90;;;;;;;24.71;43.88;99373.53;5078299;28;20020;-82
2022/07/25 01:46:20;;;;;;;10.00;5.90;;;;;;;24.71;43.90;99376.31;5079571;28;20012;-81
2022/07/25 01:48:45;;;;;;;10.27;6.17;;;;;;;24.60;44.14;99373.31;5079186;28;20249;-82
2022/07/25 01:51:11;;;;;;;9.27;6.63;;;;;;;24.62;44.55;99367.38;5077748;28;20020;-81
2022/07/25 01:53:36;;;;;;;11.15;5.90;;;;;;;24.59;44.00;99375.31;5077451;28;20020;-81
2022/07/25 01:56:03;;;;;;;8.38;5.50;;;;;;;24.64;44.22;99376.16;5076999;28;20013;-82
2022/07/25 01:58:28;;;;;;;9.70;5.57;;;;;;;24.64;44.24;99374.19;5073669;28;20043;-81
2022/07/25 02:00:53;;;;;;;11.77;6.63;;;;;;;24.64;44.17;99365.03;5072740;28;20452;-82
2022/07/25 02:03:31;;;;;;;12.47;5.93;;;;;;;24.59;44.34;99369.72;5076985;28;20249;-81
2022/07/25 02:06:05;;;;;;;7.75;5.65;;;;;;;24.59;44.49;99366.94;5078753;28;20272;-82
2022/07/25 02:08:31;;;;;;;9.80;5.43;;;;;;;24.51;44.25;99362.41;5080551;28;20035;-82
2022/07/25 02:10:57;;;;;;;18.70;5.68;;;;;;;24.54;44.27;99361.69;5087935;28;20116;-82
2022/07/25 02:13:22;;;;;;;10.82;6.85;;;;;;;24.48;44.24;99352.03;5092688;28;20070;-82
2022/07/25 02:15:48;;;;;;;14.55;7.78;;;;;;;24.46;44.22;99354.38;5092675;28;20036;-82
2022/07/25 02:18:14;;;;;;;11.07;7.63;;;;;;;24.48;44.53;99349.25;5089197;28;20028;-81
2022/07/25 02:20:39;;;;;;;13.23;5.47;;;;;;;24.53;44.30;99353.72;5089680;28;20399;-81
2022/07/25 02:23:05;;;;;;;15.87;5.97;;;;;;;24.45;44.51;99350.00;5092225;28;20045;-82
2022/07/25 02:25:30;;;;;;;8.27;5.80;;;;;;;24.42;44.90;99342.38;5092895;28;20247;-82
2022/07/25 02:27:56;;;;;;;11.05;6.55;;;;;;;24.39;44.72;99331.97;5094185;28;20059;-82
2022/07/25 02:30:21;;;;;;;9.57;6.18;;;;;;;24.39;44.52;99343.13;5092157;28;20016;-81
2022/07/25 02:32:46;;;;;;;7.40;4.87;;;;;;;24.34;44.37;99335.84;5092573;28;20020;-82
2022/07/25 02:35:12;;;;;;;8.87;5.17;;;;;;;24.40;44.58;99336.34;5088684;28;20263;-82
2022/07/25 02:37:37;;;;;;;8.48;5.07;;;;;;;24.34;44.45;99331.09;5091638;28;20698;-82
2022/07/25 02:40:03;;;;;;;10.80;7.00;;;;;;;24.32;44.67;99333.44;5094098;28;20024;-82
2022/07/25 02:42:28;;;;;;;11.02;5.72;;;;;;;24.28;44.67;99318.66;5092127;28;20024;-82
2022/07/25 02:44:53;;;;;;;11.27;6.30;;;;;;;24.34;44.97;99324.72;5093721;28;20039;-82
2022/07/25 02:47:19;;;;;;;8.00;5.53;;;;;;;24.29;44.72;99322.22;5094001;28;20012;-82
2022/07/25 02:49:44;;;;;;;10.07;6.07;;;;;;;24.29;45.18;99320.25;5093858;28;20024;-82
2022/07/25 02:52:09;;;;;;;10.90;6.87;;;;;;;24.27;45.69;99311.47;5092404;28;20423;-82
2022/07/25 02:54:35;;;;;;;11.37;5.67;;;;;;;24.25;45.13;99317.41;5091824;28;20024;-81
2022/07/25 02:57:00;;;;;;;8.63;5.67;;;;;;;24.28;44.89;99315.88;5092134;28;20261;-82
2022/07/25 02:59:25;;;;;;;11.37;6.00;;;;;;;24.28;44.67;99307.53;5092329;28;20335;-82
2022/07/25 03:01:50;;;;;;;9.77;6.03;;;;;;;24.33;45.60;99309.97;5091629;28;20482;-82
2022/07/25 03:04:16;;;;;;;9.30;6.30;;;;;;;24.29;45.19;99303.53;5093532;28;20264;-82
2022/07/25 03:06:41;;;;;;;10.40;5.30;;;;;;;24.25;45.49;99305.44;5094083;28;20436;-82
2022/07/25 03:09:06;;;;;;;8.43;5.83;;;;;;;24.21;45.02;99302.63;5094577;28;20027;-81
2022/07/25 03:11:33;;;;;;;9.03;5.70;;;;;;;24.22;45.00;99300.63;5087165;28;20031;-82
2022/07/25 03:13:58;;;;;;;9.93;5.72;;;;;;;24.23;45.11;99296.66;5077800;28;20036;-82
2022/07/25 03:16:24;;;;;;;8.77;5.70;;;;;;;24.27;45.02;99296.72;5076711;28;20031;-82
2022/07/25 03:18:49;;;;;;;8.60;5.57;;;;;;;24.22;45.46;99300.63;5075489;28;20029;-82
2022/07/25 03:21:14;;;;;;;8.85;5.97;;;;;;;24.24;45.15;99295.50;5076164;28;20024;-82
2022/07/25 03:23:39;;;;;;;11.00;5.63;;;;;;;24.20;44.96;99297.38;5077376;28;20387;-82
2022/07/25 03:26:05;;;;;;;10.67;6.03;;;;;;;24.16;45.49;99291.75;5077547;28;20262;-82
2022/07/25 03:28:30;;;;;;;9.20;5.35;;;;;;;24.19;45.07;99291.00;5073489;28;20637;-82
2022/07/25 03:30:55;;;;;;;9.47;6.13;;;;;;;24.19;45.38;99292.97;5075204;28;20021;-81
2022/07/25 03:33:21;;;;;;;8.85;5.43;;;;;;;24.18;45.63;99294.16;5097587;28;20309;-82
2022/07/25 03:35:46;;;;;;;11.40;5.30;;;;;;;24.17;45.20;99287.78;5097675;28;20019;-82
2022/07/25 03:38:12;;;;;;;11.13;6.47;;;;;;;24.09;45.44;99286.84;5095480;28;20028;-82
2022/07/25 03:40:38;;;;;;;9.05;5.88;;;;;;;24.08;45.06;99274.09;5095049;28;20027;-82
2022/07/25 03:43:03;;;;;;;8.90;5.60;;;;;;;24.09;45.20;99275.72;5097325;28;20028;-82
2022/07/25 03:45:29;;;;;;;10.63;6.63;;;;;;;24.04;45.33;99278.81;5096944;28;20039;-82
2022/07/25 03:47:54;;;;;;;9.32;5.82;;;;;;;24.00;44.81;99262.03;5097194;28;20391;-82
2022/07/25 03:50:19;;;;;;;10.90;5.50;;;;;;;24.01;45.76;99276.75;5097015;28;20031;-82
2022/07/25 03:52:45;;;;;;;9.23;5.28;;;;;;;24.07;45.27;99266.13;5096796;28;20034;-82
2022/07/25 03:55:10;;;;;;;10.30;6.07;;;;;;;24.04;45.08;99261.31;5083888;28;20024;-82
2022/07/25 03:57:36;;;;;;;11.13;5.13;;;;;;;24.09;44.95;99253.44;5077163;28;20024;-82
2022/07/25 04:00:04;;;;;;;9.05;5.05;;;;;;;24.05;45.27;99255.38;5074308;28;20425;-82
2022/07/25 04:02:29;;;;;;;8.00;5.68;;;;;;;24.10;44.94;99254.25;5076506;28;20052;-82
2022/07/25 04:04:55;;;;;;;11.37;5.33;;;;;;;24.13;44.66;99254.31;5074915;28;20093;-81
2022/07/25 04:07:20;;;;;;;12.48;6.20;;;;;;;24.18;44.62;99246.84;5075708;28;20365;-82
2022/07/25 04:09:45;;;;;;;8.30;5.30;;;;;;;24.26;44.40;99240.25;5076497;28;20469;-82
2022/07/25 04:12:11;;;;;;;8.30;5.40;;;;;;;24.28;44.56;99234.31;5074350;28;20281;-81
2022/07/25 04:14:36;;;;;;;8.68;5.70;;;;;;;24.21;44.46;99243.31;5076365;28;20017;-82
2022/07/25 04:17:01;;;;;;;10.23;5.70;;;;;;;24.24;44.51;99242.59;5076637;28;20034;-82
2022/07/25 04:19:26;;;;;;;10.68;5.47;;;;;;;24.28;44.51;99235.13;5075354;28;20453;-82
2022/07/25 04:21:52;;;;;;;7.70;5.25;;;;;;;24.37;44.52;99230.09;5070990;28;20469;-82
2022/07/25 04:24:17;;;;;;;8.57;4.77;;;;;;;24.35;44.81;99237.19;5075912;28;20025;-82
2022/07/25 04:26:42;;;;;;;9.07;4.97;;;;;;;24.39;44.67;99235.28;5076518;28;20021;-82
2022/07/25 04:29:08;;;;;;;7.50;5.33;;;;;;;24.42;44.67;99239.31;5076280;28;20323;-82
2022/07/25 04:31:33;;;;;;;10.33;6.03;;;;;;;24.44;44.34;99231.38;5076169;28;20078;-82
2022/07/25 04:33:58;;;;;;;8.25;5.43;;;;;;;24.46;44.30;99232.63;5075701;28;20024;-82
2022/07/25 04:36:25;;;;;;;9.43;5.43;;;;;;;24.54;44.32;99227.97;5076311;28;20029;-82
2022/07/25 04:38:51;;;;;;;10.60;6.03;;;;;;;24.54;44.38;99219.63;5076452;28;20021;-82
2022/07/25 04:41:16;;;;;;;7.18;4.57;;;;;;;24.50;44.35;99221.53;5074372;28;20526;-82
2022/07/25 04:43:42;;;;;;;8.15;5.28;;;;;;;24.51;44.43;99214.78;5075772;28;20534;-82
2022/07/25 04:46:07;;;;;;;7.75;5.03;;;;;;;24.53;44.17;99206.06;5075787;28;20404;-82
2022/07/25 04:48:32;;;;;;;11.43;5.27;;;;;;;24.59;44.37;99212.94;5076022;28;20357;-82
2022/07/25 04:50:58;;;;;;;9.23;5.80;;;;;;;24.55;44.37;99210.06;5075660;28;20031;-82
2022/07/25 04:53:23;;;;;;;8.10;5.20;;;;;;;24.65;44.29;99205.84;5075651;28;20543;-82
2022/07/25 04:55:49;;;;;;;9.85;5.18;;;;;;;24.70;44.22;99208.31;5075932;28;20241;-82
2022/07/25 04:58:14;;;;;;;12.32;5.45;;;;;;;24.68;43.99;99207.06;5076189;28;20508;-82
2022/07/25 05:00:39;;;;;;;10.40;5.88;;;;;;;24.58;44.07;99212.13;5073528;28;20044;-82
2022/07/25 05:03:05;;;;;;;7.43;4.60;;;;;;;24.64;44.28;99206.22;5075527;28;20419;-82
2022/07/25 05:05:30;;;;;;;8.27;4.97;;;;;;;24.59;44.51;99202.56;5075730;28;20056;-82
2022/07/25 05:07:57;;;;;;;6.47;4.50;;;;;;;24.60;44.74;99198.63;5075992;28;20507;-82
2022/07/25 05:10:23;;;;;;;8.68;5.00;;;;;;;24.65;44.22;99193.91;5075281;28;20445;-82
2022/07/25 05:12:49;;;;;;;13.65;6.07;;;;;;;24.71;44.57;99184.06;5073506;28;20072;-82
2022/07/25 05:15:14;;;;;;;8.63;5.47;;;;;;;24.72;44.42;99188.44;5074597;28;20060;-82
2022/07/25 05:17:40;;;;;;;8.25;4.80;;;;;;;24.70;44.37;99185.22;5074774;28;20575;-82
2022/07/25 05:20:06;;;;;;;6.90;4.57;;;;;;;24.66;44.63;99189.94;5080514;28;20057;-82
2022/07/25 05:22:31;;;;;;;8.70;4.60;;;;;;;24.75;44.37;99184.09;5095005;28;20038;-82
2022/07/25 05:24:57;;;;;;;9.10;4.43;;;;;;;24.78;44.34;99186.94;5092969;28;20024;-81
2022/07/25 05:27:22;;;;;;;9.27;4.60;;;;;;;24.73;44.13;99178.91;5074749;28;20025;-82
2022/07/25 05:29:47;;;;;;;7.55;4.57;;;;;;;24.76;44.24;99183.72;5074828;28;20100;-82
2022/07/25 05:32:13;;;;;;;8.73;4.13;;;;;;;24.87;44.21;99177.50;5072597;28;20029;-82
2022/07/25 05:34:38;;;;;;;9.87;5.73;;;;;;;24.90;44.42;99176.72;5072750;28;20016;-82
2022/07/25 05:37:03;;;;;;;9.82;4.82;;;;;;;24.89;44.26;99175.13;5074506;28;20276;-82
2022/07/25 05:39:29;;;;;;;8.77;5.30;;;;;;;24.97;44.00;99176.88;5075644;28;20457;-82
2022/07/25 05:41:54;;;;;;;11.37;5.27;;;;;;;24.97;43.96;99174.09;5084065;28;20028;-82
2022/07/25 05:44:19;;;;;;;7.32;5.13;;;;;;;24.96;43.94;99172.47;5071714;28;20029;-82
2022/07/25 05:46:45;;;;;;;8.85;5.13;;;;;;;24.99;44.41;99179.28;5072608;28;20107;-82
2022/07/25 05:49:10;;;;;;;8.37;5.80;;;;;;;24.93;44.21;99171.22;5079814;28;20031;-82
2022/07/25 05:51:36;;;;;;;9.05;5.53;;;;;;;24.96;44.44;99172.47;5092189;28;20372;-82
2022/07/25 05:54:01;;;;;;;7.60;5.30;;;;;;;24.92;44.43;99171.56;5095339;28;20050;-82
2022/07/25 05:56:26;;;;;;;7.87;5.03;;;;;;;25.02;44.21;99172.97;5094288;28;20019;-84
2022/07/25 05:58:52;;;;;;;11.23;5.57;;;;;;;24.97;44.07;99174.09;5094591;28;20331;-91
2022/07/25 06:01:17;;;;;;;32.80;7.32;;;;;;;24.89;44.84;99167.59;5093282;28;20272;-87
2022/07/25 06:03:42;;;;;;;10.57;5.45;;;;;;;24.99;44.72;99168.94;5095692;28;20361;-86
2022/07/25 06:06:08;;;;;;;10.17;5.03;;;;;;;25.13;44.49;99168.31;5095120;28;20368;-88
2022/07/25 06:08:34;;;;;;;8.25;4.72;;;;;;;25.20;44.73;99166.78;5091284;28;20251;-84
2022/07/25 06:11:02;;;;;;;7.07;5.13;;;;;;;25.14;44.32;99163.53;5095189;28;20027;-87
2022/07/25 06:13:28;;;;;;;10.20;6.03;;;;;;;25.22;44.81;99159.63;5092848;28;20054;-87
2022/07/25 06:15:53;;;;;;;7.65;5.28;;;;;;;25.26;44.69;99170.84;5095118;28;20020;-87
2022/07/25 06:18:19;;;;;;;9.95;6.25;;;;;;;25.19;44.35;99157.63;5095447;28;20016;-87
2022/07/25 06:20:44;;;;;;;8.60;5.90;;;;;;;25.26;44.66;99159.69;5095033;28;20028;-87
2022/07/25 06:23:09;;;;;;;8.00;4.82;;;;;;;25.30;44.53;99157.75;5093210;28;20272;-87
2022/07/25 06:25:35;;;;;;;13.10;6.18;;;;;;;25.29;44.70;99159.75;5094820;28;20024;-87
2022/07/25 06:28:00;;;;;;;11.80;5.83;;;;;;;25.27;44.46;99156.53;5095146;28;20024;-87
2022/07/25 06:30:26;;;;;;;7.15;4.45;;;;;;;25.27;44.52;99153.72;5092405;28;20276;-87
2022/07/25 06:32:51;;;;;;;9.75;4.40;;;;;;;25.36;44.40;99152.63;5095022;28;20024;-85
2022/07/25 06:35:17;;;;;;;11.50;5.90;;;;;;;25.34;44.39;99155.00;5090486;28;20412;-87
2022/07/25 06:37:43;;;;;;;22.13;6.47;;;;;;;25.36;44.91;99155.44;5091633;28;20111;-83
2022/07/25 06:40:08;;;;;;;7.43;4.60;;;;;;;25.41;44.36;99155.06;5092440;28;20457;-83
2022/07/25 06:42:38;;;;;;;8.63;5.05;;;;;;;25.47;44.29;99147.97;5093925;28;20028;-83
2022/07/25 06:45:05;;;;;;;11.50;5.40;;;;;;;25.52;44.13;99158.00;5093507;28;20023;-83
2022/07/25 06:47:31;;;;;;;8.90;4.43;;;;;;;25.45;44.55;99155.91;5094027;28;20427;-83
2022/07/25 06:49:56;;;;;;;9.60;6.15;;;;;;;25.46;44.61;99142.78;5090345;28;20103;-82
2022/07/25 06:52:22;;;;;;;11.10;5.63;;;;;;;25.46;44.61;99145.56;5088939;28;20476;-83
2022/07/25 06:54:47;;;;;;;13.20;5.00;;;;;;;25.58;44.61;99133.34;5088076;28;20358;-82
2022/07/25 06:57:12;;;;;;;8.90;5.23;;;;;;;25.64;44.38;99135.41;5092598;28;20024;-83
2022/07/25 06:59:37;;;;;;;10.90;5.73;;;;;;;25.71;44.25;99137.47;5094992;28;20399;-83
2022/07/25 07:02:03;;;;;;;11.27;5.15;;;;;;;25.71;43.91;99151.41;5094069;28;20028;-83
2022/07/25 07:04:28;;;;;;;8.15;5.03;;;;;;;25.73;44.20;99151.06;5092335;28;20024;-83
2022/07/25 07:06:53;;;;;;;13.70;5.63;;;;;;;25.76;44.00;99153.06;5094461;28;20024;-84
2022/07/25 07:09:18;;;;;;;7.10;4.30;;;;;;;25.71;44.42;99145.84;5088627;28;20653;-82
2022/07/25 07:11:44;;;;;;;11.45;4.82;;;;;;;25.75;44.54;99146.69;5088896;28;20469;-81
2022/07/25 07:14:09;;;;;;;8.88;5.65;;;;;;;25.84;44.54;99143.59;5090607;28;20043;-82
2022/07/25 07:16:35;;;;;;;8.97;5.30;;;;;;;25.81;44.43;99146.34;5092005;28;20055;-83
2022/07/25 07:19:00;;;;;;;9.05;5.10;;;;;;;25.80;44.78;99139.16;5088865;28;20337;-82
2022/07/25 07:21:25;;;;;;;10.80;5.67;;;;;;;25.83;44.70;99143.97;5092127;28;20038;-83
2022/07/25 07:23:51;;;;;;;8.33;5.13;;;;;;;25.86;44.36;99137.59;5091655;28;20152;-82
2022/07/25 07:26:16;;;;;;;7.85;5.03;;;;;;;25.95;44.48;99142.88;5088904;28;20259;-82
2022/07/25 07:28:42;;;;;;;10.02;5.40;;;;;;;25.95;44.34;99132.53;5091094;28;20403;-82
2022/07/25 07:31:07;;;;;;;9.23;5.73;;;;;;;25.94;44.38;99130.09;5086701;28;20411;-82
2022/07/25 07:33:32;;;;;;;7.80;4.68;;;;;;;26.03;44.55;99124.19;5087224;28;20031;-82
2022/07/25 07:35:58;;;;;;;10.75;5.75;;;;;;;26.08;44.31;99129.41;5088161;28;20028;-82
2022/07/25 07:38:24;;;;;;;9.20;5.35;;;;;;;26.04;44.21;99123.00;5089528;28;20024;-82
2022/07/25 07:40:51;;;;;;;8.05;5.03;;;;;;;26.02;44.56;99133.75;5071493;28;20444;-82
2022/07/25 07:43:16;;;;;;;11.82;5.60;;;;;;;26.01;44.65;99124.59;5069365;28;20116;-82
2022/07/25 07:45:42;;;;;;;11.52;6.28;;;;;;;26.07;44.75;99133.41;5069293;28;20020;-82
2022/07/25 07:48:07;;;;;;;10.75;6.22;;;;;;;26.04;44.63;99134.97;5067942;28;20151;-82
2022/07/25 07:50:33;;;;;;;12.50;5.87;;;;;;;26.13;44.74;99131.88;5084440;28;20357;-82
2022/07/25 07:52:58;;;;;;;9.45;6.63;;;;;;;26.27;44.76;99127.56;5090188;28;20249;-82
2022/07/25 07:58:08;;;;;;;8.95;5.15;;;;;;;26.41;44.36;99132.47;5089813;28;20113;-82
2022/07/25 08:00:35;;;;;;;10.13;5.65;;;;;;;26.41;44.44;99116.53;5091165;28;20024;-82
2022/07/25 08:03:01;;;;;;;8.93;5.43;;;;;;;26.50;44.36;99121.78;5092270;28;20487;-82
2022/07/25 08:05:32;;;;;;;12.75;5.63;;;;;;;26.63;44.41;99124.22;5095233;28;20024;-82
2022/07/25 08:07:58;;;;;;;14.30;5.80;;;;;;;26.71;44.26;99125.84;5097358;28;20051;-82
2022/07/25 08:10:27;;;;;;;11.05;5.97;;;;;;;26.85;44.49;99125.13;5091837;28;20031;-82
2022/07/25 08:12:52;;;;;;;8.43;5.82;;;;;;;27.06;43.95;99129.22;5094140;28;20440;-82
2022/07/25 08:15:19;;;;;;;8.77;5.43;;;;;;;27.15;44.11;99121.28;5092966;28;20035;-83
2022/07/25 08:17:46;;;;;;;7.90;4.80;;;;;;;27.21;43.60;99123.72;5094451;28;20016;-82
2022/07/25 08:20:11;;;;;;;24.02;6.63;;;;;;;27.31;43.36;99127.72;5093073;28;20024;-82
2022/07/25 08:22:42;;;;;;;7.05;4.45;;;;;;;27.36;43.92;99128.13;5093076;28;20034;-83
2022/07/25 08:25:09;;;;;;;9.63;4.93;;;;;;;27.46;43.14;99131.38;5091621;28;20073;-82
2022/07/25 08:27:35;;;;;;;11.85;5.13;;;;;;;27.49;43.12;99122.19;5095135;28;20061;-81
2022/07/25 08:30:03;;;;;;;8.48;5.45;;;;;;;27.57;42.85;99129.38;5092659;28;20361;-80
2022/07/25 08:32:28;;;;;;;8.23;4.95;;;;;;;27.72;42.59;99124.59;5092866;28;20073;-80
2022/07/25 08:34:54;;;;;;;8.77;5.22;;;;;;;27.71;42.33;99139.00;5094563;28;20032;-80
2022/07/25 08:37:19;;;;;;;9.93;5.93;;;;;;;27.74;42.61;99138.25;5094229;28;20472;-79
2022/07/25 08:39:45;;;;;;;21.10;6.18;;;;;;;27.82;42.39;99134.25;5089665;28;20024;-79
2022/07/25 08:42:10;;;;;;;8.55;5.65;;;;;;;27.91;42.08;99133.03;5094547;28;20020;-80
2022/07/25 08:44:39;;;;;;;7.40;4.70;;;;;;;27.93;42.10;99139.03;5090860;28;20055;-80
2022/07/25 08:47:06;;;;;;;9.23;5.25;;;;;;;27.89;42.02;99133.44;5081085;28;20028;-80
2022/07/25 08:49:33;;;;;;;9.73;5.18;;;;;;;27.92;42.27;99135.47;5072542;28;20021;-80
2022/07/25 08:51:59;;;;;;;9.18;5.55;;;;;;;27.95;41.78;99142.25;5073430;28;20028;-80
2022/07/25 08:54:25;;;;;;;8.65;4.78;;;;;;;27.95;41.54;99142.25;5074411;28;20111;-80
2022/07/25 08:56:50;;;;;;;9.77;5.60;;;;;;;27.91;41.45;99149.84;5073101;28;20097;-80
2022/07/25 08:59:16;;;;;;;6.68;4.38;;;;;;;27.95;41.26;99148.66;5075875;28;20020;-80
2022/07/25 09:01:41;;;;;;;8.43;5.57;;;;;;;27.94;41.18;99138.66;5072381;28;20417;-82
2022/07/25 09:04:09;;;;;;;15.97;6.20;;;;;;;27.91;41.12;99130.25;5075615;28;20107;-82
2022/07/25 09:06:35;;;;;;;9.23;5.60;;;;;;;27.89;41.29;99124.25;5076072;28;20021;-82
2022/07/25 09:09:04;;;;;;;9.57;4.90;;;;;;;27.99;41.06;99126.25;5074943;28;20020;-82
2022/07/25 09:11:32;;;;;;;8.45;4.93;;;;;;;28.00;41.93;99135.44;5075648;28;20028;-81
2022/07/25 09:14:00;;;;;;;9.75;5.38;;;;;;;27.95;41.21;99136.63;5075950;28;20117;-82
2022/07/25 09:16:34;;;;;;;9.00;5.53;;;;;;;27.93;41.62;99144.63;5075583;28;20032;-82
2022/07/25 09:19:07;;;;;;;11.23;6.10;;;;;;;27.71;42.12;99145.41;5073588;28;20052;-82
2022/07/25 09:21:32;;;;;;;9.65;5.63;;;;;;;27.83;42.32;99133.03;5075793;28;20032;-82
2022/07/25 09:24:10;;;;;;;8.02;5.40;;;;;;;27.90;42.30;99128.66;5075050;28;20463;-82
2022/07/25 09:26:43;;;;;;;8.63;5.60;;;;;;;28.04;42.28;99133.44;5075073;28;20463;-82
2022/07/25 09:29:14;;;;;;;;;;;;;;;27.90;42.45;99134.25;5075308;28;20024;-82
2022/07/25 09:31:41;;;;;;;11.25;6.15;;;;;;;27.99;42.59;99137.44;5075250;28;20341;-82
2022/07/25 09:34:08;;;;;;;12.73;6.28;;;;;;;28.02;42.41;99141.44;5075670;28;20078;-82
2022/07/25 09:36:34;;;;;;;10.52;6.85;;;;;;;28.26;42.24;99133.44;5075507;28;20020;-82
2022/07/25 09:39:01;;;;;;;12.45;5.65;;;;;;;28.45;42.11;99146.25;5075519;28;20077;-82
2022/07/25 09:41:40;;;;;;;12.63;6.13;;;;;;;28.47;41.66;99141.06;5087030;28;20055;-82
2022/07/25 09:44:21;;;;;;;13.40;6.80;;;;;;;28.48;41.76;99147.44;5094948;28;20169;-82
2022/07/25 09:46:47;;;;;;;9.07;5.40;;;;;;;28.37;41.70;99150.25;5095678;28;20046;-82
2022/07/25 09:49:15;;;;;;;12.45;5.72;;;;;;;28.53;42.20;99142.25;5094683;28;20516;-82
2022/07/25 09:51:41;;;;;;;10.20;6.40;;;;;;;28.47;42.28;99152.25;5095395;28;20020;-81
2022/07/25 09:54:06;;;;;;;11.48;5.60;;;;;;;28.67;42.01;99143.41;5092870;28;20536;-81
2022/07/25 09:56:34;;;;;;;10.93;5.32;;;;;;;28.75;41.95;99147.78;5094468;28;20453;-82
2022/07/25 09:59:00;;;;;;;7.30;5.32;;;;;;;28.71;42.16;99141.38;5094723;28;20028;-82
2022/07/25 10:01:32;;;;;;;9.98;6.40;;;;;;;28.50;42.69;99154.25;5094636;28;20028;-82
2022/07/25 10:04:14;;;;;;;14.45;5.28;;;;;;;28.54;42.45;99141.03;5094750;28;20027;-81
2022/07/25 10:06:48;;;;;;;11.93;5.90;;;;;;;28.78;41.67;99151.78;5094841;28;20403;-81
2022/07/25 10:09:14;;;;;;;7.72;5.13;;;;;;;28.79;41.81;99147.78;5094891;28;20023;-82
2022/07/25 10:11:40;;;;;;;7.65;4.97;;;;;;;28.83;42.17;99147.75;5094593;28;20097;-81
2022/07/25 10:14:11;;;;;;;13.48;5.65;;;;;;;28.94;41.88;99154.13;5095434;28;20023;-82
2022/07/25 10:16:47;;;;;;;11.68;6.15;;;;;;;28.86;42.12;99161.75;5094419;28;20535;-81
2022/07/25 10:19:12;;;;;;;9.88;5.78;;;;;;;28.98;41.59;99157.72;5094721;28;20020;-82
2022/07/25 10:21:38;;;;;;;8.73;4.75;;;;;;;29.22;40.62;99157.25;5094136;28;20089;-82
2022/07/25 10:24:08;;;;;;;11.77;4.83;;;;;;;29.15;40.82;99174.91;5094409;28;20517;-82
2022/07/25 10:26:37;;;;;;;6.15;4.40;;;;;;;28.83;41.44;99176.59;5094586;28;20256;-81
2022/07/25 10:29:10;;;;;;;11.00;5.45;;;;;;;28.45;41.67;99171.47;5093867;28;20453;-82
2022/07/25 10:31:40;;;;;;;10.77;6.32;;;;;;;28.32;41.94;99185.06;5094892;28;20024;-82
2022/07/25 10:34:09;;;;;;;8.00;4.88;;;;;;;28.12;42.67;99184.66;5094201;28;20043;-82
2022/07/25 10:36:49;;;;;;;9.27;5.75;;;;;;;27.78;43.08;99186.66;5092912;28;20119;-82
2022/07/25 10:39:18;;;;;;;9.25;6.60;;;;;;;27.71;43.56;99186.59;5072649;28;20020;-82
2022/07/25 10:41:52;;;;;;;12.27;6.32;;;;;;;27.74;44.53;99191.44;5073894;28;20016;-81
2022/07/25 10:44:17;;;;;;;9.98;5.80;;;;;;;27.67;44.46;99188.56;5074273;28;20361;-82
2022/07/25 10:46:43;;;;;;;14.07;5.90;;;;;;;27.50;44.19;99190.94;5074504;28;20021;-81
2022/07/25 10:49:17;;;;;;;9.88;6.28;;;;;;;27.57;43.63;99193.75;5073806;28;20107;-81
2022/07/25 10:51:53;;;;;;;9.07;5.50;;;;;;;27.54;43.58;99199.34;5073776;28;20461;-81
2022/07/25 10:54:21;;;;;;;10.63;5.88;;;;;;;27.59;43.61;99194.16;5073892;28;20025;-81
2022/07/25 10:56:55;;;;;;;26.85;6.78;;;;;;;27.53;44.27;99176.16;5073546;28;20036;-81
2022/07/25 10:59:33;;;;;;;10.82;6.70;;;;;;;27.52;44.44;99163.34;5074256;28;20353;-81
2022/07/25 11:02:00;;;;;;;9.05;5.07;;;;;;;27.67;43.62;99167.00;5073555;28;20024;-81
2022/07/25 11:04:26;;;;;;;10.52;5.50;;;;;;;27.60;43.95;99161.38;5074203;28;20024;-81
2022/07/25 11:06:51;;;;;;;9.85;5.28;;;;;;;27.59;44.54;99166.19;5074246;28;20446;-81
2022/07/25 11:09:25;;;;;;;11.73;6.15;;;;;;;28.06;43.58;99164.66;5073495;28;20024;-82
2022/07/25 11:11:53;;;;;;;12.25;6.15;;;;;;;28.51;42.71;99158.66;5073819;28;20045;-82
2022/07/25 11:14:32;;;;;;;10.60;5.30;;;;;;;28.92;42.34;99159.34;5074432;28;20074;-82
2022/07/25 11:17:11;;;;;;;9.15;5.53;;;;;;;28.97;41.97;99167.34;5073976;28;20463;-82
2022/07/25 11:19:37;;;;;;;15.23;7.25;;;;;;;28.83;42.00;99171.00;5074193;28;20067;-82
2022/07/25 11:22:03;;;;;;;9.97;5.53;;;;;;;28.90;41.82;99164.56;5073865;28;20024;-82
2022/07/25 11:24:40;;;;;;;10.35;6.32;;;;;;;29.22;41.57;99172.09;5073839;28;20275;-82
2022/07/25 11:27:07;;;;;;;12.13;6.20;;;;;;;29.18;41.65;99179.72;5073989;28;20039;-82
2022/07/25 11:29:33;;;;;;;14.52;7.57;;;;;;;29.31;41.05;99182.06;5073360;28;20020;-81